sensor_id;sensor_type;location;lat;lon;timestamp;P1;durP1;ratioP1;P2;durP2;ratioP2
33844;SDS011;20145;43.118;25.694;2023-04-29T00:00:19;10.88;;;7.03;;
33844;SDS011;20145;43.118;25.694;2023-04-29T00:02:45;9.27;;;6.80;;
33844;SDS011;20145;43.118;25.694;2023-04-29T00:05:10;7.82;;;6.93;;
33844;SDS011;20145;43.118;25.694;2023-04-29T00:07:36;7.00;;;6.20;;
33844;SDS011;20145;43.118;25.694;2023-04-29T00:10:02;11.63;;;7.50;;
33844;SDS011;20145;43.118;25.694;2023-04-29T00:12:28;10.23;;;7.03;;
33844;SDS011;20145;43.118;25.694;2023-04-29T00:14:55;9.52;;;6.40;;
33844;SDS011;20145;43.118;25.694;2023-04-29T00:17:21;7.43;;;6.55;;
33844;SDS011;20145;43.118;25.694;2023-04-29T00:19:47;7.18;;;6.50;;
33844;SDS011;20145;43.118;25.694;2023-04-29T00:22:12;8.32;;;6.70;;
33844;SDS011;20145;43.118;25.694;2023-04-29T00:24:38;13.20;;;6.38;;
33844;SDS011;20145;43.118;25.694;2023-04-29T00:27:03;7.10;;;6.15;;
33844;SDS011;20145;43.118;25.694;2023-04-29T00:29:30;8.70;;;6.68;;
33844;SDS011;20145;43.118;25.694;2023-04-29T00:31:56;6.93;;;6.22;;
33844;SDS011;20145;43.118;25.694;2023-04-29T00:34:22;7.72;;;7.03;;
33844;SDS011;20145;43.118;25.694;2023-04-29T00:36:48;7.30;;;6.53;;
33844;SDS011;20145;43.118;25.694;2023-04-29T00:39:14;8.95;;;6.60;;
33844;SDS011;20145;43.118;25.694;2023-04-29T00:41:40;9.80;;;6.32;;
33844;SDS011;20145;43.118;25.694;2023-04-29T00:44:06;6.50;;;5.90;;
33844;SDS011;20145;43.118;25.694;2023-04-29T00:46:32;8.15;;;7.35;;
33844;SDS011;20145;43.118;25.694;2023-04-29T00:48:59;6.63;;;5.90;;
33844;SDS011;20145;43.118;25.694;2023-04-29T00:51:25;8.70;;;6.15;;
33844;SDS011;20145;43.118;25.694;2023-04-29T00:53:51;6.90;;;6.00;;
33844;SDS011;20145;43.118;25.694;2023-04-29T00:56:17;7.75;;;6.05;;
33844;SDS011;20145;43.118;25.694;2023-04-29T00:58:45;8.38;;;6.05;;
33844;SDS011;20145;43.118;25.694;2023-04-29T01:01:14;10.13;;;6.68;;
33844;SDS011;20145;43.118;25.694;2023-04-29T01:03:40;8.85;;;5.78;;
33844;SDS011;20145;43.118;25.694;2023-04-29T01:12:19;8.00;;;6.57;;
33844;SDS011;20145;43.118;25.694;2023-04-29T01:14:45;10.90;;;8.45;;
33844;SDS011;20145;43.118;25.694;2023-04-29T01:17:26;7.45;;;6.30;;
33844;SDS011;20145;43.118;25.694;2023-04-29T01:19:55;8.25;;;7.07;;
33844;SDS011;20145;43.118;25.694;2023-04-29T01:22:23;8.80;;;6.78;;
33844;SDS011;20145;43.118;25.694;2023-04-29T01:24:48;9.93;;;6.65;;
33844;SDS011;20145;43.118;25.694;2023-04-29T01:33:16;7.97;;;6.47;;
33844;SDS011;20145;43.118;25.694;2023-04-29T01:38:46;8.15;;;6.35;;
33844;SDS011;20145;43.118;25.694;2023-04-29T01:41:28;9.60;;;6.18;;
33844;SDS011;20145;43.118;25.694;2023-04-29T01:43:56;7.38;;;6.68;;
33844;SDS011;20145;43.118;25.694;2023-04-29T01:46:23;8.40;;;6.22;;
33844;SDS011;20145;43.118;25.694;2023-04-29T01:48:52;7.20;;;5.80;;
33844;SDS011;20145;43.118;25.694;2023-04-29T01:51:18;11.20;;;6.55;;
33844;SDS011;20145;43.118;25.694;2023-04-29T01:53:44;7.95;;;6.65;;
33844;SDS011;20145;43.118;25.694;2023-04-29T01:56:09;10.75;;;7.15;;
33844;SDS011;20145;43.118;25.694;2023-04-29T01:58:35;7.32;;;6.63;;
33844;SDS011;20145;43.118;25.694;2023-04-29T02:01:01;11.50;;;6.80;;
33844;SDS011;20145;43.118;25.694;2023-04-29T02:03:26;9.20;;;6.22;;
33844;SDS011;20145;43.118;25.694;2023-04-29T02:05:52;7.05;;;6.22;;
33844;SDS011;20145;43.118;25.694;2023-04-29T02:08:17;6.43;;;5.65;;
33844;SDS011;20145;43.118;25.694;2023-04-29T02:10:52;8.02;;;6.10;;
33844;SDS011;20145;43.118;25.694;2023-04-29T02:13:19;7.90;;;5.85;;
33844;SDS011;20145;43.118;25.694;2023-04-29T02:15:45;6.90;;;5.97;;
33844;SDS011;20145;43.118;25.694;2023-04-29T02:18:10;6.20;;;5.70;;
33844;SDS011;20145;43.118;25.694;2023-04-29T02:20:36;8.35;;;6.32;;
33844;SDS011;20145;43.118;25.694;2023-04-29T02:23:01;7.63;;;6.00;;
33844;SDS011;20145;43.118;25.694;2023-04-29T02:25:27;8.60;;;6.13;;
33844;SDS011;20145;43.118;25.694;2023-04-29T02:27:52;7.78;;;6.55;;
33844;SDS011;20145;43.118;25.694;2023-04-29T02:30:20;8.40;;;7.20;;
33844;SDS011;20145;43.118;25.694;2023-04-29T02:32:45;7.15;;;6.25;;
33844;SDS011;20145;43.118;25.694;2023-04-29T02:35:11;9.95;;;6.85;;
33844;SDS011;20145;43.118;25.694;2023-04-29T02:37:37;7.43;;;6.53;;
33844;SDS011;20145;43.118;25.694;2023-04-29T02:40:02;7.55;;;6.85;;
33844;SDS011;20145;43.118;25.694;2023-04-29T02:42:30;7.43;;;6.78;;
33844;SDS011;20145;43.118;25.694;2023-04-29T02:44:55;11.35;;;7.57;;
33844;SDS011;20145;43.118;25.694;2023-04-29T02:47:21;8.30;;;6.57;;
33844;SDS011;20145;43.118;25.694;2023-04-29T02:49:47;8.55;;;6.60;;
33844;SDS011;20145;43.118;25.694;2023-04-29T02:52:13;9.35;;;6.90;;
33844;SDS011;20145;43.118;25.694;2023-04-29T02:54:39;8.80;;;6.18;;
33844;SDS011;20145;43.118;25.694;2023-04-29T02:57:05;9.18;;;6.60;;
33844;SDS011;20145;43.118;25.694;2023-04-29T02:59:32;16.75;;;7.93;;
33844;SDS011;20145;43.118;25.694;2023-04-29T03:01:57;7.82;;;6.80;;
33844;SDS011;20145;43.118;25.694;2023-04-29T03:04:23;7.93;;;7.03;;
33844;SDS011;20145;43.118;25.694;2023-04-29T03:06:49;10.63;;;8.60;;
33844;SDS011;20145;43.118;25.694;2023-04-29T03:09:15;8.80;;;8.00;;
33844;SDS011;20145;43.118;25.694;2023-04-29T03:11:40;11.65;;;8.55;;
33844;SDS011;20145;43.118;25.694;2023-04-29T03:14:06;10.38;;;8.13;;
33844;SDS011;20145;43.118;25.694;2023-04-29T03:16:31;8.70;;;7.75;;
33844;SDS011;20145;43.118;25.694;2023-04-29T03:18:57;16.20;;;8.80;;
33844;SDS011;20145;43.118;25.694;2023-04-29T03:21:22;9.02;;;6.97;;
33844;SDS011;20145;43.118;25.694;2023-04-29T03:23:50;7.15;;;6.53;;
33844;SDS011;20145;43.118;25.694;2023-04-29T03:26:15;7.65;;;6.78;;
33844;SDS011;20145;43.118;25.694;2023-04-29T03:28:41;9.98;;;7.80;;
33844;SDS011;20145;43.118;25.694;2023-04-29T03:31:07;9.73;;;8.70;;
33844;SDS011;20145;43.118;25.694;2023-04-29T03:33:32;12.50;;;8.48;;
33844;SDS011;20145;43.118;25.694;2023-04-29T03:35:58;9.15;;;7.90;;
33844;SDS011;20145;43.118;25.694;2023-04-29T03:38:23;14.48;;;9.57;;
33844;SDS011;20145;43.118;25.694;2023-04-29T03:40:50;12.43;;;8.32;;
33844;SDS011;20145;43.118;25.694;2023-04-29T03:43:16;10.55;;;8.70;;
33844;SDS011;20145;43.118;25.694;2023-04-29T03:45:42;8.35;;;7.55;;
33844;SDS011;20145;43.118;25.694;2023-04-29T03:48:07;10.95;;;7.85;;
33844;SDS011;20145;43.118;25.694;2023-04-29T03:50:34;9.20;;;8.27;;
33844;SDS011;20145;43.118;25.694;2023-04-29T03:53:00;8.63;;;7.72;;
33844;SDS011;20145;43.118;25.694;2023-04-29T03:55:26;8.70;;;6.78;;
33844;SDS011;20145;43.118;25.694;2023-04-29T03:57:52;10.40;;;7.07;;
33844;SDS011;20145;43.118;25.694;2023-04-29T04:00:17;8.48;;;6.70;;
33844;SDS011;20145;43.118;25.694;2023-04-29T04:02:43;10.70;;;6.78;;
33844;SDS011;20145;43.118;25.694;2023-04-29T04:05:08;11.45;;;7.85;;
33844;SDS011;20145;43.118;25.694;2023-04-29T04:07:34;12.25;;;8.48;;
33844;SDS011;20145;43.118;25.694;2023-04-29T04:10:00;14.70;;;7.72;;
33844;SDS011;20145;43.118;25.694;2023-04-29T04:12:26;10.50;;;7.15;;
33844;SDS011;20145;43.118;25.694;2023-04-29T04:14:51;12.05;;;8.30;;
33844;SDS011;20145;43.118;25.694;2023-04-29T04:17:18;11.00;;;8.43;;
33844;SDS011;20145;43.118;25.694;2023-04-29T04:19:43;15.70;;;8.10;;
33844;SDS011;20145;43.118;25.694;2023-04-29T04:22:09;13.68;;;8.68;;
33844;SDS011;20145;43.118;25.694;2023-04-29T04:24:35;18.40;;;7.78;;
33844;SDS011;20145;43.118;25.694;2023-04-29T04:27:01;9.30;;;7.53;;
33844;SDS011;20145;43.118;25.694;2023-04-29T04:29:26;9.65;;;6.88;;
33844;SDS011;20145;43.118;25.694;2023-04-29T04:31:52;9.23;;;6.97;;
33844;SDS011;20145;43.118;25.694;2023-04-29T04:34:18;7.05;;;6.20;;
33844;SDS011;20145;43.118;25.694;2023-04-29T04:36:44;13.90;;;6.47;;
33844;SDS011;20145;43.118;25.694;2023-04-29T04:39:09;16.45;;;10.38;;
33844;SDS011;20145;43.118;25.694;2023-04-29T04:41:35;12.32;;;8.13;;
33844;SDS011;20145;43.118;25.694;2023-04-29T04:44:01;11.43;;;7.35;;
33844;SDS011;20145;43.118;25.694;2023-04-29T04:46:27;12.25;;;6.75;;
33844;SDS011;20145;43.118;25.694;2023-04-29T04:48:52;8.27;;;6.00;;
33844;SDS011;20145;43.118;25.694;2023-04-29T04:51:18;7.63;;;5.93;;
33844;SDS011;20145;43.118;25.694;2023-04-29T04:53:43;8.95;;;6.90;;
33844;SDS011;20145;43.118;25.694;2023-04-29T04:56:09;9.68;;;7.25;;
33844;SDS011;20145;43.118;25.694;2023-04-29T04:58:34;11.43;;;6.85;;
33844;SDS011;20145;43.118;25.694;2023-04-29T05:01:00;10.00;;;6.57;;
33844;SDS011;20145;43.118;25.694;2023-04-29T05:03:26;9.65;;;6.93;;
33844;SDS011;20145;43.118;25.694;2023-04-29T05:06:01;6.50;;;5.90;;
33844;SDS011;20145;43.118;25.694;2023-04-29T05:08:26;7.97;;;6.13;;
33844;SDS011;20145;43.118;25.694;2023-04-29T05:10:52;10.15;;;6.75;;
33844;SDS011;20145;43.118;25.694;2023-04-29T05:13:18;9.90;;;6.97;;
33844;SDS011;20145;43.118;25.694;2023-04-29T05:15:44;6.53;;;5.82;;
33844;SDS011;20145;43.118;25.694;2023-04-29T05:18:10;6.40;;;5.70;;
33844;SDS011;20145;43.118;25.694;2023-04-29T05:20:36;5.85;;;5.22;;
33844;SDS011;20145;43.118;25.694;2023-04-29T05:23:02;8.43;;;5.55;;
33844;SDS011;20145;43.118;25.694;2023-04-29T05:25:28;5.82;;;5.15;;
33844;SDS011;20145;43.118;25.694;2023-04-29T05:27:53;10.70;;;4.78;;
33844;SDS011;20145;43.118;25.694;2023-04-29T05:30:19;11.85;;;5.50;;
33844;SDS011;20145;43.118;25.694;2023-04-29T05:32:45;5.53;;;5.03;;
33844;SDS011;20145;43.118;25.694;2023-04-29T05:35:11;8.95;;;7.10;;
33844;SDS011;20145;43.118;25.694;2023-04-29T05:37:38;8.98;;;6.63;;
33844;SDS011;20145;43.118;25.694;2023-04-29T05:40:03;5.20;;;4.30;;
33844;SDS011;20145;43.118;25.694;2023-04-29T05:42:29;8.20;;;5.13;;
33844;SDS011;20145;43.118;25.694;2023-04-29T05:44:55;4.60;;;4.20;;
33844;SDS011;20145;43.118;25.694;2023-04-29T05:47:20;4.90;;;4.03;;
33844;SDS011;20145;43.118;25.694;2023-04-29T05:49:46;6.18;;;4.30;;
33844;SDS011;20145;43.118;25.694;2023-04-29T05:52:13;6.78;;;3.90;;
33844;SDS011;20145;43.118;25.694;2023-04-29T05:54:38;11.70;;;4.70;;
33844;SDS011;20145;43.118;25.694;2023-04-29T05:57:04;6.22;;;5.00;;
33844;SDS011;20145;43.118;25.694;2023-04-29T05:59:30;8.02;;;5.90;;
33844;SDS011;20145;43.118;25.694;2023-04-29T06:01:56;5.75;;;5.25;;
33844;SDS011;20145;43.118;25.694;2023-04-29T06:04:22;7.88;;;5.60;;
33844;SDS011;20145;43.118;25.694;2023-04-29T06:06:49;6.10;;;4.95;;
33844;SDS011;20145;43.118;25.694;2023-04-29T06:09:16;8.40;;;5.38;;
33844;SDS011;20145;43.118;25.694;2023-04-29T06:11:42;6.07;;;5.22;;
33844;SDS011;20145;43.118;25.694;2023-04-29T06:14:09;6.85;;;4.97;;
33844;SDS011;20145;43.118;25.694;2023-04-29T06:16:35;6.10;;;5.05;;
33844;SDS011;20145;43.118;25.694;2023-04-29T06:19:00;7.75;;;5.40;;
33844;SDS011;20145;43.118;25.694;2023-04-29T06:21:26;6.50;;;5.15;;
33844;SDS011;20145;43.118;25.694;2023-04-29T06:23:52;9.77;;;5.80;;
33844;SDS011;20145;43.118;25.694;2023-04-29T06:26:18;8.02;;;5.88;;
33844;SDS011;20145;43.118;25.694;2023-04-29T06:28:45;6.43;;;5.35;;
33844;SDS011;20145;43.118;25.694;2023-04-29T06:31:11;8.75;;;5.30;;
33844;SDS011;20145;43.118;25.694;2023-04-29T06:33:36;10.15;;;5.50;;
33844;SDS011;20145;43.118;25.694;2023-04-29T06:36:02;8.10;;;5.18;;
33844;SDS011;20145;43.118;25.694;2023-04-29T06:38:28;6.55;;;5.30;;
33844;SDS011;20145;43.118;25.694;2023-04-29T06:40:54;9.40;;;5.97;;
33844;SDS011;20145;43.118;25.694;2023-04-29T06:43:24;6.90;;;5.95;;
33844;SDS011;20145;43.118;25.694;2023-04-29T06:45:53;8.88;;;5.40;;
33844;SDS011;20145;43.118;25.694;2023-04-29T06:48:18;7.28;;;5.35;;
33844;SDS011;20145;43.118;25.694;2023-04-29T06:50:51;11.05;;;6.10;;
33844;SDS011;20145;43.118;25.694;2023-04-29T06:53:21;11.98;;;6.80;;
33844;SDS011;20145;43.118;25.694;2023-04-29T06:55:47;14.75;;;6.97;;
33844;SDS011;20145;43.118;25.694;2023-04-29T06:58:13;9.00;;;6.93;;
33844;SDS011;20145;43.118;25.694;2023-04-29T07:00:42;13.50;;;7.65;;
33844;SDS011;20145;43.118;25.694;2023-04-29T07:03:08;12.85;;;7.95;;
33844;SDS011;20145;43.118;25.694;2023-04-29T07:05:35;9.52;;;5.43;;
33844;SDS011;20145;43.118;25.694;2023-04-29T07:08:01;14.38;;;6.32;;
33844;SDS011;20145;43.118;25.694;2023-04-29T07:10:27;9.85;;;5.65;;
33844;SDS011;20145;43.118;25.694;2023-04-29T07:12:53;13.80;;;7.40;;
33844;SDS011;20145;43.118;25.694;2023-04-29T07:15:19;10.85;;;6.57;;
33844;SDS011;20145;43.118;25.694;2023-04-29T07:17:44;9.10;;;5.00;;
33844;SDS011;20145;43.118;25.694;2023-04-29T07:20:10;8.75;;;4.72;;
33844;SDS011;20145;43.118;25.694;2023-04-29T07:22:36;6.22;;;4.68;;
33844;SDS011;20145;43.118;25.694;2023-04-29T07:25:02;8.27;;;4.80;;
33844;SDS011;20145;43.118;25.694;2023-04-29T07:27:28;7.07;;;5.38;;
33844;SDS011;20145;43.118;25.694;2023-04-29T07:29:54;9.15;;;4.43;;
33844;SDS011;20145;43.118;25.694;2023-04-29T07:32:20;9.07;;;4.93;;
33844;SDS011;20145;43.118;25.694;2023-04-29T07:34:45;4.95;;;3.92;;
33844;SDS011;20145;43.118;25.694;2023-04-29T07:37:11;7.93;;;4.53;;
33844;SDS011;20145;43.118;25.694;2023-04-29T07:39:37;8.55;;;4.88;;
33844;SDS011;20145;43.118;25.694;2023-04-29T07:42:03;8.75;;;3.95;;
33844;SDS011;20145;43.118;25.694;2023-04-29T07:44:28;8.30;;;4.65;;
33844;SDS011;20145;43.118;25.694;2023-04-29T07:46:54;9.18;;;3.70;;
33844;SDS011;20145;43.118;25.694;2023-04-29T07:49:20;5.70;;;4.40;;
33844;SDS011;20145;43.118;25.694;2023-04-29T07:51:47;5.35;;;3.50;;
33844;SDS011;20145;43.118;25.694;2023-04-29T07:54:12;5.25;;;3.58;;
33844;SDS011;20145;43.118;25.694;2023-04-29T07:56:38;4.53;;;3.22;;
33844;SDS011;20145;43.118;25.694;2023-04-29T07:59:03;6.47;;;2.95;;
33844;SDS011;20145;43.118;25.694;2023-04-29T08:01:29;5.70;;;3.45;;
33844;SDS011;20145;43.118;25.694;2023-04-29T08:03:54;5.93;;;2.95;;
33844;SDS011;20145;43.118;25.694;2023-04-29T08:06:20;4.28;;;3.13;;
33844;SDS011;20145;43.118;25.694;2023-04-29T08:08:46;5.65;;;3.20;;
33844;SDS011;20145;43.118;25.694;2023-04-29T08:11:16;7.65;;;4.03;;
33844;SDS011;20145;43.118;25.694;2023-04-29T08:13:44;7.23;;;4.57;;
33844;SDS011;20145;43.118;25.694;2023-04-29T08:16:10;5.50;;;4.32;;
33844;SDS011;20145;43.118;25.694;2023-04-29T08:18:37;6.25;;;3.55;;
33844;SDS011;20145;43.118;25.694;2023-04-29T08:21:03;5.85;;;3.30;;
33844;SDS011;20145;43.118;25.694;2023-04-29T08:23:28;4.93;;;3.47;;
33844;SDS011;20145;43.118;25.694;2023-04-29T08:25:54;4.50;;;3.45;;
33844;SDS011;20145;43.118;25.694;2023-04-29T08:28:20;5.50;;;3.38;;
33844;SDS011;20145;43.118;25.694;2023-04-29T08:30:46;4.28;;;2.55;;
33844;SDS011;20145;43.118;25.694;2023-04-29T08:33:12;5.43;;;3.10;;
33844;SDS011;20145;43.118;25.694;2023-04-29T08:35:38;6.53;;;2.90;;
33844;SDS011;20145;43.118;25.694;2023-04-29T08:38:04;4.88;;;3.53;;
33844;SDS011;20145;43.118;25.694;2023-04-29T08:40:43;6.93;;;4.20;;
33844;SDS011;20145;43.118;25.694;2023-04-29T08:43:12;4.95;;;3.03;;
33844;SDS011;20145;43.118;25.694;2023-04-29T08:45:39;5.72;;;3.33;;
33844;SDS011;20145;43.118;25.694;2023-04-29T08:48:06;6.47;;;3.97;;
33844;SDS011;20145;43.118;25.694;2023-04-29T08:50:36;4.28;;;3.03;;
33844;SDS011;20145;43.118;25.694;2023-04-29T08:53:04;7.47;;;3.80;;
33844;SDS011;20145;43.118;25.694;2023-04-29T08:55:33;9.05;;;3.50;;
33844;SDS011;20145;43.118;25.694;2023-04-29T08:58:06;5.72;;;3.40;;
33844;SDS011;20145;43.118;25.694;2023-04-29T09:00:36;6.10;;;3.92;;
33844;SDS011;20145;43.118;25.694;2023-04-29T09:03:03;4.13;;;3.15;;
33844;SDS011;20145;43.118;25.694;2023-04-29T09:05:54;3.80;;;3.17;;
33844;SDS011;20145;43.118;25.694;2023-04-29T09:08:23;7.53;;;3.30;;
33844;SDS011;20145;43.118;25.694;2023-04-29T09:10:50;8.55;;;4.57;;
33844;SDS011;20145;43.118;25.694;2023-04-29T09:13:27;4.55;;;3.35;;
33844;SDS011;20145;43.118;25.694;2023-04-29T09:19:35;4.82;;;3.30;;
33844;SDS011;20145;43.118;25.694;2023-04-29T09:22:01;5.28;;;3.05;;
33844;SDS011;20145;43.118;25.694;2023-04-29T09:24:29;4.95;;;2.97;;
33844;SDS011;20145;43.118;25.694;2023-04-29T09:26:56;6.55;;;2.90;;
33844;SDS011;20145;43.118;25.694;2023-04-29T09:29:23;7.25;;;3.20;;
33844;SDS011;20145;43.118;25.694;2023-04-29T09:31:48;9.95;;;3.50;;
33844;SDS011;20145;43.118;25.694;2023-04-29T09:34:15;6.20;;;3.25;;
33844;SDS011;20145;43.118;25.694;2023-04-29T09:39:09;6.05;;;2.78;;
33844;SDS011;20145;43.118;25.694;2023-04-29T09:41:38;8.20;;;2.65;;
33844;SDS011;20145;43.118;25.694;2023-04-29T09:44:25;7.60;;;3.20;;
33844;SDS011;20145;43.118;25.694;2023-04-29T09:47:05;5.32;;;3.33;;
33844;SDS011;20145;43.118;25.694;2023-04-29T09:49:39;3.90;;;2.70;;
33844;SDS011;20145;43.118;25.694;2023-04-29T09:52:10;5.43;;;2.78;;
33844;SDS011;20145;43.118;25.694;2023-04-29T09:54:38;4.43;;;2.97;;
33844;SDS011;20145;43.118;25.694;2023-04-29T09:57:06;8.30;;;3.33;;
33844;SDS011;20145;43.118;25.694;2023-04-29T09:59:36;7.40;;;3.22;;
33844;SDS011;20145;43.118;25.694;2023-04-29T10:02:09;5.47;;;3.03;;
33844;SDS011;20145;43.118;25.694;2023-04-29T10:04:40;3.58;;;2.67;;
33844;SDS011;20145;43.118;25.694;2023-04-29T10:07:07;6.43;;;2.95;;
33844;SDS011;20145;43.118;25.694;2023-04-29T10:09:33;5.32;;;3.05;;
33844;SDS011;20145;43.118;25.694;2023-04-29T10:12:02;7.53;;;3.00;;
33844;SDS011;20145;43.118;25.694;2023-04-29T10:14:31;6.75;;;2.92;;
33844;SDS011;20145;43.118;25.694;2023-04-29T10:17:10;6.82;;;2.60;;
33844;SDS011;20145;43.118;25.694;2023-04-29T10:25:06;5.93;;;2.45;;
33844;SDS011;20145;43.118;25.694;2023-04-29T10:27:34;6.20;;;3.03;;
33844;SDS011;20145;43.118;25.694;2023-04-29T10:30:01;6.35;;;3.20;;
33844;SDS011;20145;43.118;25.694;2023-04-29T10:32:29;7.32;;;2.45;;
33844;SDS011;20145;43.118;25.694;2023-04-29T10:34:56;6.40;;;2.80;;
33844;SDS011;20145;43.118;25.694;2023-04-29T10:37:24;4.88;;;3.05;;
33844;SDS011;20145;43.118;25.694;2023-04-29T10:43:00;3.97;;;2.42;;
33844;SDS011;20145;43.118;25.694;2023-04-29T10:45:27;4.95;;;2.72;;
33844;SDS011;20145;43.118;25.694;2023-04-29T10:50:33;4.72;;;2.83;;
33844;SDS011;20145;43.118;25.694;2023-04-29T10:53:02;4.13;;;2.70;;
33844;SDS011;20145;43.118;25.694;2023-04-29T10:55:29;7.82;;;2.83;;
33844;SDS011;20145;43.118;25.694;2023-04-29T10:57:55;4.32;;;2.20;;
33844;SDS011;20145;43.118;25.694;2023-04-29T11:00:28;6.45;;;2.72;;
33844;SDS011;20145;43.118;25.694;2023-04-29T11:03:04;5.60;;;2.83;;
33844;SDS011;20145;43.118;25.694;2023-04-29T11:06:02;4.78;;;3.00;;
33844;SDS011;20145;43.118;25.694;2023-04-29T11:08:33;3.50;;;2.08;;
33844;SDS011;20145;43.118;25.694;2023-04-29T11:11:04;3.92;;;2.30;;
33844;SDS011;20145;43.118;25.694;2023-04-29T11:13:31;6.43;;;2.05;;
33844;SDS011;20145;43.118;25.694;2023-04-29T11:16:05;5.75;;;2.72;;
33844;SDS011;20145;43.118;25.694;2023-04-29T11:18:33;2.53;;;2.13;;
33844;SDS011;20145;43.118;25.694;2023-04-29T11:23:29;4.07;;;2.25;;
33844;SDS011;20145;43.118;25.694;2023-04-29T11:25:55;4.63;;;2.22;;
33844;SDS011;20145;43.118;25.694;2023-04-29T11:28:22;5.95;;;2.58;;
33844;SDS011;20145;43.118;25.694;2023-04-29T11:30:51;6.28;;;2.80;;
33844;SDS011;20145;43.118;25.694;2023-04-29T11:33:18;3.92;;;2.47;;
33844;SDS011;20145;43.118;25.694;2023-04-29T11:35:44;5.97;;;2.58;;
33844;SDS011;20145;43.118;25.694;2023-04-29T11:38:11;5.05;;;3.20;;
33844;SDS011;20145;43.118;25.694;2023-04-29T11:40:40;5.55;;;2.67;;
33844;SDS011;20145;43.118;25.694;2023-04-29T11:43:15;3.88;;;2.90;;
33844;SDS011;20145;43.118;25.694;2023-04-29T11:45:43;5.45;;;2.83;;
33844;SDS011;20145;43.118;25.694;2023-04-29T11:48:16;6.20;;;2.85;;
33844;SDS011;20145;43.118;25.694;2023-04-29T11:50:45;5.40;;;2.80;;
33844;SDS011;20145;43.118;25.694;2023-04-29T11:53:12;4.13;;;2.80;;
33844;SDS011;20145;43.118;25.694;2023-04-29T11:55:40;5.38;;;2.40;;
33844;SDS011;20145;43.118;25.694;2023-04-29T11:58:07;6.70;;;3.28;;
33844;SDS011;20145;43.118;25.694;2023-04-29T12:00:33;4.50;;;2.50;;
33844;SDS011;20145;43.118;25.694;2023-04-29T12:02:59;5.30;;;2.55;;
33844;SDS011;20145;43.118;25.694;2023-04-29T12:05:25;3.97;;;2.53;;
33844;SDS011;20145;43.118;25.694;2023-04-29T12:07:50;3.25;;;2.65;;
33844;SDS011;20145;43.118;25.694;2023-04-29T12:10:16;6.95;;;2.70;;
33844;SDS011;20145;43.118;25.694;2023-04-29T12:12:42;7.13;;;2.42;;
33844;SDS011;20145;43.118;25.694;2023-04-29T12:15:09;3.50;;;2.55;;
33844;SDS011;20145;43.118;25.694;2023-04-29T12:17:37;5.22;;;3.03;;
33844;SDS011;20145;43.118;25.694;2023-04-29T12:20:03;5.97;;;2.50;;
33844;SDS011;20145;43.118;25.694;2023-04-29T12:22:33;5.13;;;2.53;;
33844;SDS011;20145;43.118;25.694;2023-04-29T12:24:59;7.38;;;2.95;;
33844;SDS011;20145;43.118;25.694;2023-04-29T12:27:27;3.25;;;2.42;;
33844;SDS011;20145;43.118;25.694;2023-04-29T12:29:55;3.05;;;2.50;;
33844;SDS011;20145;43.118;25.694;2023-04-29T12:32:22;7.05;;;2.60;;
33844;SDS011;20145;43.118;25.694;2023-04-29T12:34:49;6.38;;;2.33;;
33844;SDS011;20145;43.118;25.694;2023-04-29T12:37:16;6.30;;;2.30;;
33844;SDS011;20145;43.118;25.694;2023-04-29T12:39:42;8.38;;;2.10;;
33844;SDS011;20145;43.118;25.694;2023-04-29T12:42:13;6.22;;;2.67;;
33844;SDS011;20145;43.118;25.694;2023-04-29T12:44:43;2.47;;;2.28;;
33844;SDS011;20145;43.118;25.694;2023-04-29T12:47:11;3.75;;;2.38;;
33844;SDS011;20145;43.118;25.694;2023-04-29T12:49:40;3.88;;;2.50;;
33844;SDS011;20145;43.118;25.694;2023-04-29T12:52:07;4.28;;;3.03;;
33844;SDS011;20145;43.118;25.694;2023-04-29T12:54:36;3.85;;;2.70;;
33844;SDS011;20145;43.118;25.694;2023-04-29T12:57:05;4.72;;;2.38;;
33844;SDS011;20145;43.118;25.694;2023-04-29T12:59:31;5.20;;;2.47;;
33844;SDS011;20145;43.118;25.694;2023-04-29T13:01:56;8.70;;;2.63;;
33844;SDS011;20145;43.118;25.694;2023-04-29T13:04:22;4.93;;;2.40;;
33844;SDS011;20145;43.118;25.694;2023-04-29T13:06:47;5.43;;;3.00;;
33844;SDS011;20145;43.118;25.694;2023-04-29T13:09:15;3.55;;;2.72;;
33844;SDS011;20145;43.118;25.694;2023-04-29T13:11:40;3.22;;;2.33;;
33844;SDS011;20145;43.118;25.694;2023-04-29T13:14:06;4.97;;;2.63;;
33844;SDS011;20145;43.118;25.694;2023-04-29T13:16:32;11.18;;;2.75;;
33844;SDS011;20145;43.118;25.694;2023-04-29T13:18:58;5.07;;;2.65;;
33844;SDS011;20145;43.118;25.694;2023-04-29T13:21:25;4.00;;;2.65;;
33844;SDS011;20145;43.118;25.694;2023-04-29T13:23:51;4.82;;;2.72;;
33844;SDS011;20145;43.118;25.694;2023-04-29T13:26:17;2.85;;;2.17;;
33844;SDS011;20145;43.118;25.694;2023-04-29T13:28:43;3.75;;;1.95;;
33844;SDS011;20145;43.118;25.694;2023-04-29T13:31:08;5.13;;;2.20;;
33844;SDS011;20145;43.118;25.694;2023-04-29T13:33:34;4.90;;;2.42;;
33844;SDS011;20145;43.118;25.694;2023-04-29T13:35:59;3.65;;;2.25;;
33844;SDS011;20145;43.118;25.694;2023-04-29T13:38:25;6.03;;;2.83;;
33844;SDS011;20145;43.118;25.694;2023-04-29T13:40:50;4.40;;;2.03;;
33844;SDS011;20145;43.118;25.694;2023-04-29T13:43:16;4.82;;;2.53;;
33844;SDS011;20145;43.118;25.694;2023-04-29T13:45:41;3.45;;;2.35;;
33844;SDS011;20145;43.118;25.694;2023-04-29T13:48:07;3.70;;;2.63;;
33844;SDS011;20145;43.118;25.694;2023-04-29T13:50:32;3.58;;;2.50;;
33844;SDS011;20145;43.118;25.694;2023-04-29T13:52:58;4.35;;;2.58;;
33844;SDS011;20145;43.118;25.694;2023-04-29T13:55:24;6.63;;;3.08;;
33844;SDS011;20145;43.118;25.694;2023-04-29T13:57:49;4.70;;;2.50;;
33844;SDS011;20145;43.118;25.694;2023-04-29T14:00:16;4.13;;;2.78;;
33844;SDS011;20145;43.118;25.694;2023-04-29T14:02:42;3.45;;;2.42;;
33844;SDS011;20145;43.118;25.694;2023-04-29T14:05:07;3.08;;;2.55;;
33844;SDS011;20145;43.118;25.694;2023-04-29T14:07:34;4.00;;;2.33;;
33844;SDS011;20145;43.118;25.694;2023-04-29T14:10:00;5.45;;;2.53;;
33844;SDS011;20145;43.118;25.694;2023-04-29T14:12:27;3.55;;;2.63;;
33844;SDS011;20145;43.118;25.694;2023-04-29T14:14:52;9.80;;;7.47;;
33844;SDS011;20145;43.118;25.694;2023-04-29T14:17:18;6.22;;;3.60;;
33844;SDS011;20145;43.118;25.694;2023-04-29T14:19:44;9.18;;;2.90;;
33844;SDS011;20145;43.118;25.694;2023-04-29T14:22:09;2.85;;;2.30;;
33844;SDS011;20145;43.118;25.694;2023-04-29T14:24:35;5.85;;;2.70;;
33844;SDS011;20145;43.118;25.694;2023-04-29T14:27:00;3.80;;;2.50;;
33844;SDS011;20145;43.118;25.694;2023-04-29T14:29:27;3.78;;;2.25;;
33844;SDS011;20145;43.118;25.694;2023-04-29T14:31:53;3.47;;;2.30;;
33844;SDS011;20145;43.118;25.694;2023-04-29T14:34:19;9.00;;;6.53;;
33844;SDS011;20145;43.118;25.694;2023-04-29T14:36:45;5.32;;;2.58;;
33844;SDS011;20145;43.118;25.694;2023-04-29T14:39:11;4.15;;;2.47;;
33844;SDS011;20145;43.118;25.694;2023-04-29T14:41:37;3.97;;;2.45;;
33844;SDS011;20145;43.118;25.694;2023-04-29T14:44:02;5.00;;;2.58;;
33844;SDS011;20145;43.118;25.694;2023-04-29T14:46:29;6.90;;;4.10;;
33844;SDS011;20145;43.118;25.694;2023-04-29T14:48:56;4.45;;;2.72;;
33844;SDS011;20145;43.118;25.694;2023-04-29T14:51:21;5.38;;;2.78;;
33844;SDS011;20145;43.118;25.694;2023-04-29T14:53:47;4.63;;;2.50;;
33844;SDS011;20145;43.118;25.694;2023-04-29T14:56:14;8.40;;;2.42;;
33844;SDS011;20145;43.118;25.694;2023-04-29T14:58:40;10.18;;;2.60;;
33844;SDS011;20145;43.118;25.694;2023-04-29T15:01:06;4.20;;;3.15;;
33844;SDS011;20145;43.118;25.694;2023-04-29T15:03:32;3.60;;;2.15;;
33844;SDS011;20145;43.118;25.694;2023-04-29T15:05:57;4.88;;;2.58;;